Time;durP1;ratioP1;P1;durP2;ratioP2;P2;SDS_P1;SDS_P2;PMS_P1;PMS_P2;Temp;Humidity;BMP_temperature;BMP_pressure;BME280_temperature;BME280_humidity;BME280_pressure;Samples;Min_cycle;Max_cycle;Signal;HPM_P1;HPM_P2
2023/09/06 00:02:07;;;;;;;2.87;2.67;;;;;;;;;;5068343;28;20059;-62
2023/09/06 00:04:32;;;;;;;6.15;3.97;;;;;;;;;;5070577;28;20024;-62
2023/09/06 00:06:57;;;;;;;3.95;3.55;;;;;;;;;;5069656;28;20093;-62
2023/09/06 00:09:23;;;;;;;3.92;3.58;;;;;;;;;;5070565;28;20074;-62
2023/09/06 00:11:48;;;;;;;6.57;4.18;;;;;;;;;;5068476;28;20044;-62
2023/09/06 00:14:13;;;;;;;7.20;4.57;;;;;;;;;;5070518;28;20376;-63
2023/09/06 00:16:38;;;;;;;6.07;3.50;;;;;;;;;;5069212;28;20059;-63
2023/09/06 00:19:03;;;;;;;9.02;4.43;;;;;;;;;;5070125;28;20012;-63
2023/09/06 00:21:29;;;;;;;3.47;3.17;;;;;;;;;;5069176;28;20557;-63
2023/09/06 00:23:54;;;;;;;5.80;4.88;;;;;;;;;;5070977;28;20120;-63
2023/09/06 00:26:19;;;;;;;4.93;4.53;;;;;;;;;;5059949;28;20467;-63
2023/09/06 00:28:45;;;;;;;4.13;3.08;;;;;;;;;;5049280;28;20036;-63
2023/09/06 00:31:10;;;;;;;2.95;2.58;;;;;;;;;;5056904;28;20048;-63
2023/09/06 00:33:36;;;;;;;2.93;2.73;;;;;;;;;;5070013;28;20013;-63
2023/09/06 00:36:05;;;;;;;4.13;3.47;;;;;;;;;;5069293;28;20024;-63
2023/09/06 00:38:30;;;;;;;3.42;3.13;;;;;;;;;;5068319;28;20617;-63
2023/09/06 00:40:55;;;;;;;4.90;4.45;;;;;;;;;;5068728;28;20048;-63
2023/09/06 00:43:20;;;;;;;4.03;3.10;;;;;;;;;;5070604;28;20042;-63
2023/09/06 00:45:48;;;;;;;7.63;4.97;;;;;;;;;;5068228;28;20044;-62
2023/09/06 00:48:16;;;;;;;4.68;3.70;;;;;;;;;;5070208;28;20030;-63
2023/09/06 00:50:41;;;;;;;;;;;;;;;;;;5068984;28;20040;-62
2023/09/06 00:53:07;;;;;;;5.03;3.93;;;;;;;;;;5051030;28;19904;-62
2023/09/06 00:55:33;;;;;;;6.25;5.18;;;;;;;;;;5051737;28;20100;-62
2023/09/06 00:57:58;;;;;;;6.22;5.57;;;;;;;;;;5070045;28;20608;-63
2023/09/06 01:00:24;;;;;;;8.77;5.27;;;;;;;;;;5068335;28;20023;-62
2023/09/06 01:02:49;;;;;;;6.38;3.95;;;;;;;;;;5069989;28;21076;-62
2023/09/06 01:05:15;;;;;;;8.03;4.90;;;;;;;;;;5067945;28;20100;-61
2023/09/06 01:07:43;;;;;;;5.18;4.68;;;;;;;;;;5067827;28;20059;-63
2023/09/06 01:10:09;;;;;;;6.30;4.05;;;;;;;;;;5069807;28;20025;-62
2023/09/06 01:12:34;;;;;;;4.33;3.93;;;;;;;;;;5067947;28;20025;-61
2023/09/06 01:14:59;;;;;;;5.00;4.50;;;;;;;;;;5070493;28;20467;-62
2023/09/06 01:17:26;;;;;;;4.55;4.15;;;;;;;;;;5068143;28;20257;-62
2023/09/06 01:19:53;;;;;;;4.07;3.78;;;;;;;;;;5069775;28;20016;-62
2023/09/06 01:22:27;;;;;;;6.40;4.47;;;;;;;;;;5068570;28;20025;-62
2023/09/06 01:24:52;;;;;;;5.03;4.55;;;;;;;;;;5069834;28;20033;-61
2023/09/06 01:27:18;;;;;;;6.13;5.10;;;;;;;;;;5068253;28;20043;-62
2023/09/06 01:29:43;;;;;;;7.10;5.40;;;;;;;;;;5069759;28;20032;-62
2023/09/06 01:32:08;;;;;;;4.83;4.33;;;;;;;;;;5048206;28;20040;-63
2023/09/06 01:34:33;;;;;;;5.50;3.80;;;;;;;;;;5049535;28;20025;-62
2023/09/06 01:36:58;;;;;;;3.15;2.67;;;;;;;;;;5048319;28;20443;-62
2023/09/06 01:39:23;;;;;;;5.17;4.27;;;;;;;;;;5054342;28;20064;-62
2023/09/06 01:41:49;;;;;;;5.13;4.70;;;;;;;;;;5068083;28;20047;-62
2023/09/06 01:44:15;;;;;;;11.13;5.15;;;;;;;;;;5069441;28;20111;-62
2023/09/06 01:46:40;;;;;;;6.97;6.28;;;;;;;;;;5068221;28;20117;-62
2023/09/06 01:49:05;;;;;;;6.05;5.45;;;;;;;;;;5069141;28;20104;-62
2023/09/06 01:51:31;;;;;;;7.87;3.80;;;;;;;;;;5060672;28;20044;-63
2023/09/06 01:53:56;;;;;;;4.63;3.70;;;;;;;;;;5045256;28;20445;-63
2023/09/06 01:56:21;;;;;;;6.75;4.25;;;;;;;;;;5048108;28;20040;-63
2023/09/06 01:58:46;;;;;;;5.28;4.78;;;;;;;;;;5068173;28;20012;-63
2023/09/06 02:01:11;;;;;;;7.57;4.67;;;;;;;;;;5068210;28;20510;-63
2023/09/06 02:03:37;;;;;;;4.60;4.28;;;;;;;;;;5053632;28;20067;-62
2023/09/06 02:06:03;;;;;;;6.25;5.00;;;;;;;;;;5054876;28;20035;-63
2023/09/06 02:08:28;;;;;;;3.80;3.47;;;;;;;;;;5069399;28;20020;-62
2023/09/06 02:10:53;;;;;;;4.30;3.55;;;;;;;;;;5067685;28;20048;-62
2023/09/06 02:13:18;;;;;;;5.80;5.20;;;;;;;;;;5069298;28;20020;-62
2023/09/06 02:15:44;;;;;;;6.35;5.53;;;;;;;;;;5067778;28;20033;-63
2023/09/06 02:18:10;;;;;;;6.63;5.50;;;;;;;;;;5069245;28;20086;-62
2023/09/06 02:20:36;;;;;;;6.30;5.70;;;;;;;;;;5071528;28;20052;-62
2023/09/06 02:23:01;;;;;;;4.18;3.78;;;;;;;;;;5072746;28;20071;-62
2023/09/06 02:25:30;;;;;;;5.53;4.55;;;;;;;;;;5070663;28;20021;-63
2023/09/06 02:27:56;;;;;;;5.32;4.85;;;;;;;;;;5071839;28;20044;-64
2023/09/06 02:30:21;;;;;;;6.30;5.63;;;;;;;;;;5052519;28;20432;-63
2023/09/06 02:32:47;;;;;;;8.73;5.43;;;;;;;;;;5054263;28;20028;-64
2023/09/06 02:35:13;;;;;;;5.22;4.80;;;;;;;;;;5054493;28;20424;-64
2023/09/06 02:37:38;;;;;;;6.97;4.73;;;;;;;;;;5069803;28;20032;-64
2023/09/06 02:40:09;;;;;;;6.00;4.10;;;;;;;;;;5071845;28;20504;-61
2023/09/06 02:42:36;;;;;;;7.05;6.45;;;;;;;;;;5050479;28;20041;-61
2023/09/06 02:45:03;;;;;;;8.70;6.10;;;;;;;;;;5070664;28;20020;-61
2023/09/06 02:47:28;;;;;;;6.82;6.18;;;;;;;;;;5070097;28;20403;-62
2023/09/06 02:49:55;;;;;;;7.97;5.40;;;;;;;;;;5072544;28;20024;-62
2023/09/06 02:52:30;;;;;;;8.30;6.15;;;;;;;;;;5071090;28;20064;-62
2023/09/06 02:54:59;;;;;;;6.43;5.90;;;;;;;;;;5072138;28;20036;-62
2023/09/06 02:57:25;;;;;;;5.53;5.13;;;;;;;;;;5070706;28;20036;-61
2023/09/06 02:59:51;;;;;;;7.93;7.20;;;;;;;;;;5072680;28;20055;-61
2023/09/06 03:02:18;;;;;;;10.32;6.95;;;;;;;;;;5059102;28;20057;-61
2023/09/06 03:04:43;;;;;;;8.60;6.63;;;;;;;;;;5047757;28;20036;-61
2023/09/06 03:07:08;;;;;;;12.10;7.17;;;;;;;;;;5068396;28;20033;-61
2023/09/06 03:09:35;;;;;;;13.52;7.40;;;;;;;;;;5071483;28;20353;-62
2023/09/06 03:12:07;;;;;;;8.25;7.10;;;;;;;;;;5066780;28;20128;-70
2023/09/06 03:14:33;;;;;;;7.72;7.03;;;;;;;;;;5068956;28;20023;-61
2023/09/06 03:17:08;;;;;;;8.50;7.57;;;;;;;;;;5069782;28;20029;-61
2023/09/06 03:19:33;;;;;;;9.63;7.53;;;;;;;;;;5071836;28;20078;-61
2023/09/06 03:21:59;;;;;;;7.70;7.00;;;;;;;;;;5056970;28;20033;-61
2023/09/06 03:24:25;;;;;;;8.32;6.78;;;;;;;;;;5051725;28;20206;-61
2023/09/06 03:26:51;;;;;;;9.85;7.45;;;;;;;;;;5063675;28;20064;-61
2023/09/06 03:29:17;;;;;;;12.07;7.63;;;;;;;;;;5071133;28;20035;-61
2023/09/06 03:31:42;;;;;;;8.07;6.78;;;;;;;;;;5069418;28;20048;-61
2023/09/06 03:34:13;;;;;;;8.43;7.73;;;;;;;;;;5070768;28;20016;-61
2023/09/06 03:36:40;;;;;;;10.93;7.80;;;;;;;;;;5070178;28;20063;-61
2023/09/06 03:39:06;;;;;;;9.77;8.55;;;;;;;;;;5070622;28;20051;-61
2023/09/06 03:41:31;;;;;;;8.43;7.53;;;;;;;;;;5069929;28;20041;-61
2023/09/06 03:43:56;;;;;;;9.35;6.25;;;;;;;;;;5070739;28;20036;-61
2023/09/06 03:46:22;;;;;;;7.72;7.00;;;;;;;;;;5067340;28;20025;-61
2023/09/06 03:48:47;;;;;;;15.68;8.52;;;;;;;;;;5070372;28;20427;-61
2023/09/06 03:51:14;;;;;;;10.40;7.80;;;;;;;;;;5068357;28;20028;-61
2023/09/06 03:53:39;;;;;;;8.68;7.35;;;;;;;;;;5070537;28;20060;-61
2023/09/06 03:56:05;;;;;;;7.10;6.05;;;;;;;;;;5069988;28;20103;-61
2023/09/06 03:58:30;;;;;;;8.68;6.68;;;;;;;;;;5071237;28;20055;-62
2023/09/06 04:00:55;;;;;;;8.75;7.95;;;;;;;;;;5069403;28;20060;-61
2023/09/06 04:03:22;;;;;;;7.00;6.30;;;;;;;;;;5071225;28;20522;-61
2023/09/06 04:05:47;;;;;;;8.32;6.93;;;;;;;;;;5069554;28;20032;-61
2023/09/06 04:08:18;;;;;;;5.77;5.17;;;;;;;;;;5070801;28;20032;-61
2023/09/06 04:10:44;;;;;;;7.18;6.47;;;;;;;;;;5069430;28;20833;-61
2023/09/06 04:13:10;;;;;;;6.03;5.50;;;;;;;;;;5070968;28;20035;-61
2023/09/06 04:15:36;;;;;;;7.55;6.70;;;;;;;;;;5068957;28;20041;-61
2023/09/06 04:18:02;;;;;;;8.45;6.22;;;;;;;;;;5070965;28;20040;-61
2023/09/06 04:20:31;;;;;;;6.85;6.22;;;;;;;;;;5068977;28;20016;-61
2023/09/06 04:22:56;;;;;;;;;;;;;;;;;;5071225;28;20016;-61
2023/09/06 04:25:22;;;;;;;9.85;6.97;;;;;;;;;;5069396;28;20340;-61
2023/09/06 04:27:48;;;;;;;6.30;5.63;;;;;;;;;;5070724;28;20176;-61
2023/09/06 04:30:17;;;;;;;7.70;5.38;;;;;;;;;;5070755;28;20024;-61
2023/09/06 04:32:44;;;;;;;4.93;4.35;;;;;;;;;;5068713;28;20036;-61
2023/09/06 04:35:09;;;;;;;10.10;7.75;;;;;;;;;;5070579;28;20017;-61
2023/09/06 04:37:35;;;;;;;5.85;5.30;;;;;;;;;;5069111;28;20037;-61
2023/09/06 04:40:00;;;;;;;6.22;5.63;;;;;;;;;;5069817;28;20052;-60
2023/09/06 04:42:25;;;;;;;12.77;6.65;;;;;;;;;;5068101;28;20032;-60
2023/09/06 04:44:51;;;;;;;7.67;6.23;;;;;;;;;;5070407;28;20036;-60
2023/09/06 04:47:17;;;;;;;9.10;7.75;;;;;;;;;;5068747;28;20024;-59
2023/09/06 04:49:45;;;;;;;6.97;6.25;;;;;;;;;;5070367;28;20028;-60
2023/09/06 04:52:10;;;;;;;7.85;7.07;;;;;;;;;;5069048;28;20618;-62
2023/09/06 04:54:35;;;;;;;6.78;4.65;;;;;;;;;;5063527;28;20199;-62
2023/09/06 04:57:00;;;;;;;103.85;7.90;;;;;;;;;;5048708;28;20404;-62
2023/09/06 04:59:25;;;;;;;5.07;4.57;;;;;;;;;;5049996;28;20057;-60
2023/09/06 05:01:51;;;;;;;10.60;5.27;;;;;;;;;;5048468;28;20045;-61
2023/09/06 05:04:18;;;;;;;5.90;5.35;;;;;;;;;;5050197;28;20028;-61
2023/09/06 05:06:44;;;;;;;5.38;4.88;;;;;;;;;;5048465;28;20123;-60
2023/09/06 05:09:10;;;;;;;6.90;6.27;;;;;;;;;;5049610;28;20250;-62
2023/09/06 05:11:35;;;;;;;9.63;8.20;;;;;;;;;;5048196;28;20496;-57
2023/09/06 05:14:00;;;;;;;9.33;8.33;;;;;;;;;;5050090;28;20025;-58
2023/09/06 05:16:26;;;;;;;11.80;8.25;;;;;;;;;;5047949;28;20037;-57
2023/09/06 05:18:52;;;;;;;7.80;7.10;;;;;;;;;;5050114;28;20036;-57
2023/09/06 05:21:18;;;;;;;11.00;6.10;;;;;;;;;;5049026;28;20013;-57
2023/09/06 05:23:43;;;;;;;8.10;6.38;;;;;;;;;;5049447;28;20075;-57
2023/09/06 05:26:10;;;;;;;9.85;7.50;;;;;;;;;;5048320;28;20024;-57
2023/09/06 05:28:35;;;;;;;9.52;7.07;;;;;;;;;;5049768;28;20020;-57
2023/09/06 05:31:01;;;;;;;11.00;9.23;;;;;;;;;;5048093;28;20033;-57
2023/09/06 05:33:26;;;;;;;10.13;9.20;;;;;;;;;;5049924;28;20029;-57
2023/09/06 05:35:52;;;;;;;12.95;9.30;;;;;;;;;;5048522;28;20468;-57
2023/09/06 05:38:17;;;;;;;16.17;9.73;;;;;;;;;;5049540;28;20038;-57
2023/09/06 05:40:43;;;;;;;12.05;10.70;;;;;;;;;;5047956;28;20289;-57
2023/09/06 05:43:08;;;;;;;10.75;9.63;;;;;;;;;;5049774;28;20444;-58
2023/09/06 05:45:33;;;;;;;11.30;9.95;;;;;;;;;;5047690;28;20060;-57
2023/09/06 05:47:59;;;;;;;10.57;9.48;;;;;;;;;;5048408;28;20434;-57
2023/09/06 05:50:24;;;;;;;14.27;10.00;;;;;;;;;;5048220;28;20028;-57
2023/09/06 05:52:49;;;;;;;10.00;9.00;;;;;;;;;;5048714;28;20455;-57
2023/09/06 05:55:14;;;;;;;9.47;8.60;;;;;;;;;;5052242;28;20422;-57
2023/09/06 05:57:40;;;;;;;13.52;9.50;;;;;;;;;;5031752;28;20444;-58
2023/09/06 06:00:12;;;;;;;10.80;8.75;;;;;;;;;;5032930;28;20013;-57
2023/09/06 06:02:37;;;;;;;10.95;9.13;;;;;;;;;;5030750;28;20041;-57
2023/09/06 06:05:03;;;;;;;12.10;9.07;;;;;;;;;;5033743;28;20431;-57
2023/09/06 06:07:28;;;;;;;8.93;8.13;;;;;;;;;;5031254;28;20067;-57
2023/09/06 06:09:53;;;;;;;10.38;9.38;;;;;;;;;;5033539;28;20033;-58
2023/09/06 06:12:22;;;;;;;9.23;7.57;;;;;;;;;;5031471;28;20060;-57
2023/09/06 06:14:47;;;;;;;8.90;7.97;;;;;;;;;;5037985;28;20009;-57
2023/09/06 06:17:13;;;;;;;11.57;8.18;;;;;;;;;;5048059;28;20040;-57
2023/09/06 06:19:38;;;;;;;8.95;8.05;;;;;;;;;;5052437;28;20028;-57
2023/09/06 06:22:03;;;;;;;8.18;6.80;;;;;;;;;;5069601;28;20041;-57
2023/09/06 06:24:33;;;;;;;8.65;7.05;;;;;;;;;;5072346;28;20052;-57
2023/09/06 06:26:58;;;;;;;10.48;7.22;;;;;;;;;;5071250;28;20224;-57
2023/09/06 06:29:23;;;;;;;7.80;5.88;;;;;;;;;;5072786;28;20228;-57
2023/09/06 06:31:49;;;;;;;10.57;6.10;;;;;;;;;;5071161;28;20468;-57
2023/09/06 06:34:15;;;;;;;13.20;8.00;;;;;;;;;;5072961;28;20016;-57
2023/09/06 06:36:41;;;;;;;7.55;6.55;;;;;;;;;;5070644;28;20151;-57
2023/09/06 06:39:06;;;;;;;8.60;5.55;;;;;;;;;;5072393;28;20123;-57
2023/09/06 06:41:31;;;;;;;6.85;4.97;;;;;;;;;;5070470;28;20037;-57
2023/09/06 06:43:56;;;;;;;9.20;6.35;;;;;;;;;;5072050;28;20024;-58
2023/09/06 06:46:29;;;;;;;4.73;4.33;;;;;;;;;;5071121;28;20521;-58
2023/09/06 06:48:54;;;;;;;6.72;3.53;;;;;;;;;;5072659;28;20031;-58
2023/09/06 06:51:20;;;;;;;8.55;5.05;;;;;;;;;;5070663;28;20029;-58
2023/09/06 06:53:45;;;;;;;7.07;3.90;;;;;;;;;;5072363;28;20027;-59
2023/09/06 06:56:10;;;;;;;3.95;3.47;;;;;;;;;;5071032;28;20491;-58
2023/09/06 06:58:35;;;;;;;3.50;3.20;;;;;;;;;;5071702;28;20028;-58
2023/09/06 07:01:00;;;;;;;5.47;4.47;;;;;;;;;;5070891;28;20044;-58
2023/09/06 07:03:26;;;;;;;4.43;3.97;;;;;;;;;;5072142;28;20107;-58
2023/09/06 07:05:51;;;;;;;3.65;3.35;;;;;;;;;;5069447;28;20036;-58
2023/09/06 07:08:16;;;;;;;3.85;3.50;;;;;;;;;;5072045;28;20447;-58
2023/09/06 07:10:42;;;;;;;7.95;4.20;;;;;;;;;;5070330;28;20036;-58
2023/09/06 07:13:07;;;;;;;4.50;2.83;;;;;;;;;;5071825;28;20020;-58
2023/09/06 07:15:32;;;;;;;5.18;2.72;;;;;;;;;;5070316;28;20070;-58
2023/09/06 07:17:57;;;;;;;4.13;3.33;;;;;;;;;;5071995;28;20132;-58
2023/09/06 07:20:22;;;;;;;4.30;2.77;;;;;;;;;;5070688;28;20376;-59
2023/09/06 07:22:48;;;;;;;6.28;3.25;;;;;;;;;;5071440;28;20778;-58
2023/09/06 07:25:13;;;;;;;2.92;2.63;;;;;;;;;;5072066;28;20099;-58
2023/09/06 07:27:38;;;;;;;4.37;2.77;;;;;;;;;;5069836;28;20067;-58
2023/09/06 07:30:04;;;;;;;7.72;2.50;;;;;;;;;;5071381;28;20448;-58
2023/09/06 07:32:29;;;;;;;3.03;2.50;;;;;;;;;;5069840;28;20040;-58
2023/09/06 07:34:55;;;;;;;4.50;2.67;;;;;;;;;;5071614;28;20071;-58
2023/09/06 07:37:20;;;;;;;5.17;2.90;;;;;;;;;;5070006;28;20029;-58
2023/09/06 07:39:45;;;;;;;5.28;2.53;;;;;;;;;;5071018;28;20469;-58
2023/09/06 07:42:10;;;;;;;3.33;2.37;;;;;;;;;;5067168;28;20029;-58
2023/09/06 07:44:35;;;;;;;2.83;2.63;;;;;;;;;;5070540;28;20028;-58
2023/09/06 07:47:01;;;;;;;3.38;2.80;;;;;;;;;;5068266;28;20398;-58
2023/09/06 07:49:27;;;;;;;6.60;2.83;;;;;;;;;;5070847;28;20078;-58
2023/09/06 07:51:52;;;;;;;5.75;3.85;;;;;;;;;;5069081;28;20094;-58
2023/09/06 07:54:18;;;;;;;6.30;3.22;;;;;;;;;;5071079;28;20021;-58
2023/09/06 07:56:47;;;;;;;6.93;3.47;;;;;;;;;;5069376;28;20548;-61
2023/09/06 07:59:12;;;;;;;6.80;3.25;;;;;;;;;;5070758;28;20020;-58
2023/09/06 08:01:37;;;;;;;4.75;2.72;;;;;;;;;;5065546;28;20040;-58
2023/09/06 08:04:02;;;;;;;5.47;3.37;;;;;;;;;;5050946;28;20405;-58
2023/09/06 08:06:28;;;;;;;5.20;2.23;;;;;;;;;;5048801;28;20017;-59
2023/09/06 08:08:53;;;;;;;3.97;2.40;;;;;;;;;;5050634;28;20428;-58
2023/09/06 08:11:18;;;;;;;6.90;4.85;;;;;;;;;;5049394;28;20463;-58
2023/09/06 08:13:43;;;;;;;3.40;2.40;;;;;;;;;;5050552;28;20504;-58
2023/09/06 08:16:09;;;;;;;2.83;2.40;;;;;;;;;;5050303;28;20029;-59
2023/09/06 08:18:34;;;;;;;3.20;2.45;;;;;;;;;;5066447;28;20032;-59
2023/09/06 08:21:00;;;;;;;4.38;2.63;;;;;;;;;;5070021;28;20074;-59
2023/09/06 08:23:25;;;;;;;23.70;3.58;;;;;;;;;;5068860;28;20369;-59
2023/09/06 08:25:50;;;;;;;3.60;1.90;;;;;;;;;;5069928;28;20070;-59
2023/09/06 08:28:17;;;;;;;5.97;2.53;;;;;;;;;;5067463;28;20044;-58
2023/09/06 08:30:44;;;;;;;5.00;2.72;;;;;;;;;;5068957;28;20097;-59
2023/09/06 08:33:09;;;;;;;6.00;2.63;;;;;;;;;;5070798;28;20027;-58
2023/09/06 08:35:34;;;;;;;3.37;2.27;;;;;;;;;;5068617;28;20095;-59
2023/09/06 08:37:59;;;;;;;5.77;2.60;;;;;;;;;;5070553;28;20438;-58
2023/09/06 08:40:24;;;;;;;3.75;2.22;;;;;;;;;;5068746;28;20026;-58
2023/09/06 08:42:52;;;;;;;5.18;2.90;;;;;;;;;;5070083;28;20036;-58
2023/09/06 08:45:19;;;;;;;5.30;2.50;;;;;;;;;;5069165;28;20387;-58
2023/09/06 08:47:45;;;;;;;5.45;2.72;;;;;;;;;;5070103;28;20415;-59
2023/09/06 08:50:11;;;;;;;6.80;2.53;;;;;;;;;;5068392;28;20021;-58
2023/09/06 08:52:40;;;;;;;4.30;2.00;;;;;;;;;;5062226;28;20041;-58
2023/09/06 08:55:06;;;;;;;6.70;2.80;;;;;;;;;;5059119;28;20020;-60
2023/09/06 08:57:31;;;;;;;3.30;2.53;;;;;;;;;;5055274;28;20400;-59
2023/09/06 08:59:57;;;;;;;2.90;2.25;;;;;;;;;;5060019;28;20024;-58
2023/09/06 09:02:22;;;;;;;3.38;2.35;;;;;;;;;;5058800;28;20029;-58
2023/09/06 09:04:49;;;;;;;6.28;1.92;;;;;;;;;;5058073;28;20017;-58
2023/09/06 09:07:16;;;;;;;2.50;2.13;;;;;;;;;;5058695;28;20403;-58
2023/09/06 09:10:17;;;;;;;4.50;2.25;;;;;;;;;;5059999;28;20032;-58
2023/09/06 09:12:42;;;;;;;3.38;2.60;;;;;;;;;;5034467;28;20320;-59
2023/09/06 09:15:07;;;;;;;3.13;2.00;;;;;;;;;;5056492;28;20602;-59
2023/09/06 09:17:34;;;;;;;9.00;2.72;;;;;;;;;;5068474;28;20032;-59
2023/09/06 09:20:00;;;;;;;2.78;1.52;;;;;;;;;;5069827;28;20029;-58
2023/09/06 09:22:30;;;;;;;3.95;1.88;;;;;;;;;;5068449;28;20112;-59
2023/09/06 09:25:04;;;;;;;4.40;2.55;;;;;;;;;;5068735;28;20028;-59
2023/09/06 09:27:29;;;;;;;3.05;2.17;;;;;;;;;;5067022;28;20024;-59
2023/09/06 09:29:55;;;;;;;4.07;2.30;;;;;;;;;;5073966;28;20379;-59
2023/09/06 09:32:20;;;;;;;2.80;2.00;;;;;;;;;;5072465;28;20493;-59
2023/09/06 09:34:45;;;;;;;3.63;1.70;;;;;;;;;;5073228;28;20025;-59
2023/09/06 09:37:10;;;;;;;3.13;2.10;;;;;;;;;;5072073;28;20028;-58
2023/09/06 09:39:37;;;;;;;2.43;2.17;;;;;;;;;;5070354;28;20465;-59
2023/09/06 09:42:03;;;;;;;4.50;3.05;;;;;;;;;;5071928;28;20041;-59
2023/09/06 09:44:28;;;;;;;4.72;1.92;;;;;;;;;;5073448;28;20025;-59
2023/09/06 09:46:54;;;;;;;2.33;1.70;;;;;;;;;;5072258;28;20073;-59
2023/09/06 09:49:20;;;;;;;3.28;1.92;;;;;;;;;;5073117;28;20055;-59
2023/09/06 09:51:48;;;;;;;1.98;1.88;;;;;;;;;;5071755;28;20040;-60
2023/09/06 09:54:15;;;;;;;8.75;3.05;;;;;;;;;;5073504;28;20024;-59
2023/09/06 09:56:42;;;;;;;3.33;1.83;;;;;;;;;;5071160;28;20032;-59
2023/09/06 09:59:08;;;;;;;3.05;1.80;;;;;;;;;;5073413;28;20096;-59
2023/09/06 10:01:33;;;;;;;5.82;2.17;;;;;;;;;;5071486;28;20032;-59
2023/09/06 10:03:59;;;;;;;3.22;2.05;;;;;;;;;;5072886;28;20377;-59
2023/09/06 10:06:26;;;;;;;4.47;1.98;;;;;;;;;;5070902;28;20039;-59
2023/09/06 10:08:54;;;;;;;7.43;3.05;;;;;;;;;;5073297;28;20471;-59
2023/09/06 10:11:20;;;;;;;4.65;2.22;;;;;;;;;;5071313;28;20036;-59
2023/09/06 10:13:46;;;;;;;2.85;2.47;;;;;;;;;;5072907;28;20016;-59
2023/09/06 10:16:11;;;;;;;6.25;2.55;;;;;;;;;;5071742;28;20391;-59
2023/09/06 10:18:36;;;;;;;4.23;2.80;;;;;;;;;;5070557;28;20028;-59
2023/09/06 10:21:04;;;;;;;2.78;2.38;;;;;;;;;;5070040;28;20048;-59
2023/09/06 10:23:31;;;;;;;2.65;2.42;;;;;;;;;;5072781;28;20028;-59
2023/09/06 10:25:58;;;;;;;2.10;1.90;;;;;;;;;;5071158;28;20052;-59
2023/09/06 10:28:24;;;;;;;3.42;2.25;;;;;;;;;;5072878;28;20054;-59
2023/09/06 10:30:51;;;;;;;2.22;2.03;;;;;;;;;;5071551;28;20032;-59
2023/09/06 10:33:28;;;;;;;3.70;2.22;;;;;;;;;;5072615;28;20049;-59
2023/09/06 10:35:56;;;;;;;4.88;2.17;;;;;;;;;;5071591;28;20024;-60
2023/09/06 10:38:22;;;;;;;4.47;2.30;;;;;;;;;;5072330;28;20044;-59
2023/09/06 10:40:47;;;;;;;3.53;2.63;;;;;;;;;;5069888;28;20028;-59
2023/09/06 10:43:12;;;;;;;3.38;2.88;;;;;;;;;;5072691;28;20037;-59
2023/09/06 10:45:37;;;;;;;2.42;2.22;;;;;;;;;;5071044;28;20025;-59
2023/09/06 10:48:09;;;;;;;2.28;2.08;;;;;;;;;;5072353;28;20487;-59
2023/09/06 10:50:36;;;;;;;5.20;2.22;;;;;;;;;;5070771;28;20082;-59
2023/09/06 10:53:01;;;;;;;4.22;2.03;;;;;;;;;;5072543;28;20009;-59
2023/09/06 10:55:29;;;;;;;3.03;2.10;;;;;;;;;;5070415;28;20383;-59
2023/09/06 10:58:02;;;;;;;3.70;2.45;;;;;;;;;;5072629;28;20070;-59
2023/09/06 11:00:31;;;;;;;9.20;3.15;;;;;;;;;;5070824;28;20017;-59
2023/09/06 11:03:19;;;;;;;2.60;2.00;;;;;;;;;;5071981;28;20035;-60
2023/09/06 11:05:51;;;;;;;2.65;2.13;;;;;;;;;;5070912;28;20043;-60
2023/09/06 11:08:24;;;;;;;4.18;2.40;;;;;;;;;;5072078;28;20561;-59
2023/09/06 11:10:49;;;;;;;4.30;2.30;;;;;;;;;;5070452;28;20032;-60
2023/09/06 11:13:18;;;;;;;2.63;2.00;;;;;;;;;;5072159;28;20020;-60
2023/09/06 11:15:43;;;;;;;5.22;3.00;;;;;;;;;;5070301;28;20028;-59
2023/09/06 11:18:09;;;;;;;4.17;2.30;;;;;;;;;;5071895;28;20024;-60
2023/09/06 11:20:35;;;;;;;8.07;2.55;;;;;;;;;;5070494;28;20494;-60
2023/09/06 11:23:00;;;;;;;3.83;2.70;;;;;;;;;;5071904;28;20016;-59
2023/09/06 11:25:26;;;;;;;2.45;2.05;;;;;;;;;;5069959;28;20245;-59
2023/09/06 11:27:55;;;;;;;12.77;2.10;;;;;;;;;;5071831;28;20376;-59
2023/09/06 11:30:23;;;;;;;2.47;2.28;;;;;;;;;;5070447;28;20081;-60
2023/09/06 11:32:48;;;;;;;2.22;2.00;;;;;;;;;;5071251;28;20017;-60
2023/09/06 11:35:15;;;;;;;4.43;2.13;;;;;;;;;;5071972;28;20059;-60
2023/09/06 11:37:44;;;;;;;4.72;2.08;;;;;;;;;;5065970;28;20032;-59
2023/09/06 11:40:14;;;;;;;2.42;2.22;;;;;;;;;;5061905;28;20048;-60
2023/09/06 11:42:43;;;;;;;3.10;2.22;;;;;;;;;;5061422;28;20045;-59
2023/09/06 11:45:09;;;;;;;2.13;1.63;;;;;;;;;;5051253;28;20195;-60
2023/09/06 11:47:35;;;;;;;2.10;1.90;;;;;;;;;;5049223;28;20040;-60
2023/09/06 11:50:03;;;;;;;3.53;2.20;;;;;;;;;;5051032;28;20021;-60
2023/09/06 11:52:30;;;;;;;7.07;3.42;;;;;;;;;;5049203;28;20103;-59
2023/09/06 11:54:56;;;;;;;6.47;2.13;;;;;;;;;;5059651;28;20021;-59
2023/09/06 11:57:27;;;;;;;4.35;1.55;;;;;;;;;;5069530;28;20483;-60
2023/09/06 11:59:53;;;;;;;1.65;1.55;;;;;;;;;;5071055;28;20012;-59
2023/09/06 12:02:21;;;;;;;1.95;1.45;;;;;;;;;;5069437;28;20048;-59
2023/09/06 12:04:57;;;;;;;2.60;1.55;;;;;;;;;;5070566;28;20108;-59
2023/09/06 12:07:23;;;;;;;2.17;1.60;;;;;;;;;;5069453;28;20037;-59
2023/09/06 12:09:48;;;;;;;1.98;1.35;;;;;;;;;;5069076;28;20443;-60
2023/09/06 12:12:16;;;;;;;4.80;1.95;;;;;;;;;;5069552;28;20120;-66
2023/09/06 12:14:42;;;;;;;6.25;1.88;;;;;;;;;;5070590;28;20081;-59
2023/09/06 12:17:07;;;;;;;2.13;1.77;;;;;;;;;;5069107;28;20040;-60
2023/09/06 12:19:33;;;;;;;10.27;2.23;;;;;;;;;;5069087;28;20448;-59
2023/09/06 12:21:58;;;;;;;3.03;1.30;;;;;;;;;;5069414;28;20062;-59
2023/09/06 12:24:24;;;;;;;2.00;1.80;;;;;;;;;;5070556;28;20048;-60
2023/09/06 12:26:49;;;;;;;1.83;1.48;;;;;;;;;;5069183;28;20044;-60
2023/09/06 12:29:14;;;;;;;2.93;1.50;;;;;;;;;;5070944;28;20012;-60
2023/09/06 12:31:39;;;;;;;2.00;1.80;;;;;;;;;;5067090;28;20466;-59
2023/09/06 12:34:04;;;;;;;1.40;1.30;;;;;;;;;;5070961;28;20020;-60
2023/09/06 12:36:30;;;;;;;2.55;2.00;;;;;;;;;;5068907;28;20036;-59
2023/09/06 12:38:55;;;;;;;2.07;1.70;;;;;;;;;;5070226;28;20127;-60
2023/09/06 12:41:20;;;;;;;2.97;2.63;;;;;;;;;;5069153;28;20878;-60
2023/09/06 12:43:46;;;;;;;2.27;1.77;;;;;;;;;;5070433;28;20024;-60
2023/09/06 12:46:11;;;;;;;9.90;3.67;;;;;;;;;;5068393;28;20029;-60
2023/09/06 12:48:37;;;;;;;4.53;1.85;;;;;;;;;;5070162;28;20502;-60
2023/09/06 12:51:04;;;;;;;2.13;1.83;;;;;;;;;;5062301;28;20084;-60
2023/09/06 12:53:30;;;;;;;3.55;2.53;;;;;;;;;;5048615;28;20013;-60
2023/09/06 12:55:55;;;;;;;5.85;1.92;;;;;;;;;;5048722;28;20115;-60
2023/09/06 12:58:20;;;;;;;4.22;2.17;;;;;;;;;;5050377;28;20024;-60
2023/09/06 13:00:46;;;;;;;4.60;2.00;;;;;;;;;;5048486;28;20036;-60
2023/09/06 13:03:11;;;;;;;2.63;1.58;;;;;;;;;;5049104;28;20427;-60
2023/09/06 13:05:40;;;;;;;5.63;1.90;;;;;;;;;;5048741;28;20025;-60
2023/09/06 13:08:05;;;;;;;1.52;1.20;;;;;;;;;;5050139;28;20758;-59
2023/09/06 13:10:30;;;;;;;4.83;1.90;;;;;;;;;;5048107;28;20100;-60
2023/09/06 13:12:56;;;;;;;2.33;1.23;;;;;;;;;;5050213;28;20021;-60
2023/09/06 13:15:21;;;;;;;3.60;1.50;;;;;;;;;;5044576;28;20029;-59
2023/09/06 13:17:46;;;;;;;2.72;1.75;;;;;;;;;;5049452;28;20445;-60
2023/09/06 13:20:11;;;;;;;2.08;1.45;;;;;;;;;;5045128;28;20017;-60
2023/09/06 13:22:37;;;;;;;1.90;1.43;;;;;;;;;;5067828;28;20262;-59
2023/09/06 13:25:03;;;;;;;4.13;1.95;;;;;;;;;;5069492;28;20500;-59
2023/09/06 13:27:28;;;;;;;4.75;1.60;;;;;;;;;;5067903;28;20041;-59
2023/09/06 13:29:56;;;;;;;1.73;1.60;;;;;;;;;;5070351;28;20032;-60
2023/09/06 13:32:21;;;;;;;2.28;1.95;;;;;;;;;;5068206;28;20032;-59
2023/09/06 13:34:46;;;;;;;3.13;1.60;;;;;;;;;;5070005;28;20019;-59
2023/09/06 13:37:11;;;;;;;2.63;1.67;;;;;;;;;;5068323;28;20504;-60
2023/09/06 13:39:36;;;;;;;2.63;1.87;;;;;;;;;;5069246;28;20047;-60
2023/09/06 13:42:02;;;;;;;1.58;1.42;;;;;;;;;;5068522;28;20043;-59
2023/09/06 13:44:31;;;;;;;4.97;1.97;;;;;;;;;;5061212;28;20027;-60
2023/09/06 13:46:58;;;;;;;2.13;1.55;;;;;;;;;;5067904;28;20043;-60
2023/09/06 13:49:23;;;;;;;1.60;1.20;;;;;;;;;;5068580;28;20044;-60
2023/09/06 13:51:48;;;;;;;1.83;1.10;;;;;;;;;;5068082;28;20060;-60
2023/09/06 13:54:13;;;;;;;3.43;1.83;;;;;;;;;;5068531;28;20464;-59
2023/09/06 13:56:38;;;;;;;2.35;1.70;;;;;;;;;;5068017;28;20031;-60
2023/09/06 13:59:04;;;;;;;2.90;1.00;;;;;;;;;;5069766;28;20020;-59
2023/09/06 14:01:29;;;;;;;2.83;1.25;;;;;;;;;;5067906;28;20040;-60
2023/09/06 14:03:54;;;;;;;2.17;1.40;;;;;;;;;;5069807;28;20060;-59
2023/09/06 14:06:19;;;;;;;12.97;2.33;;;;;;;;;;5068132;28;20055;-59
2023/09/06 14:08:45;;;;;;;4.53;1.77;;;;;;;;;;5069255;28;20376;-59
2023/09/06 14:11:10;;;;;;;2.45;2.25;;;;;;;;;;5068049;28;20101;-59
2023/09/06 14:13:36;;;;;;;3.23;1.83;;;;;;;;;;5068786;28;20089;-59
2023/09/06 14:16:02;;;;;;;1.77;1.60;;;;;;;;;;5071608;28;20056;-59
2023/09/06 14:18:27;;;;;;;2.72;1.75;;;;;;;;;;5072862;28;20129;-59
2023/09/06 14:20:53;;;;;;;2.20;1.57;;;;;;;;;;5071788;28;20089;-59
2023/09/06 14:23:18;;;;;;;6.40;2.38;;;;;;;;;;5073003;28;20377;-60
2023/09/06 14:25:43;;;;;;;2.22;1.70;;;;;;;;;;5071632;28;20024;-59
2023/09/06 14:28:09;;;;;;;5.13;2.25;;;;;;;;;;5072801;28;20070;-59
2023/09/06 14:30:40;;;;;;;1.70;1.60;;;;;;;;;;5070810;28;20407;-59
2023/09/06 14:33:05;;;;;;;2.63;1.73;;;;;;;;;;5072777;28;20031;-59
2023/09/06 14:35:37;;;;;;;5.57;2.40;;;;;;;;;;5065353;28;20807;-59
2023/09/06 14:38:02;;;;;;;2.03;1.55;;;;;;;;;;5055217;28;20032;-59